sensor_id;sensor_type;location;lat;lon;timestamp;P1;durP1;ratioP1;P2;durP2;ratioP2
19038;SDS011;9652;49.014;12.052;2023-05-18T00:01:59;4.53;;;3.70;;
19038;SDS011;9652;49.014;12.052;2023-05-18T00:04:28;4.60;;;3.93;;
19038;SDS011;9652;49.014;12.052;2023-05-18T00:06:55;4.57;;;3.47;;
19038;SDS011;9652;49.014;12.052;2023-05-18T00:09:23;5.63;;;4.13;;
19038;SDS011;9652;49.014;12.052;2023-05-18T00:11:50;5.00;;;4.03;;
19038;SDS011;9652;49.014;12.052;2023-05-18T00:14:18;4.77;;;3.93;;
19038;SDS011;9652;49.014;12.052;2023-05-18T00:16:45;4.03;;;3.73;;
19038;SDS011;9652;49.014;12.052;2023-05-18T00:19:14;3.83;;;3.53;;
19038;SDS011;9652;49.014;12.052;2023-05-18T00:21:41;3.80;;;3.50;;
19038;SDS011;9652;49.014;12.052;2023-05-18T00:24:11;4.23;;;3.53;;
19038;SDS011;9652;49.014;12.052;2023-05-18T00:26:38;4.83;;;4.33;;
19038;SDS011;9652;49.014;12.052;2023-05-18T00:29:06;4.50;;;4.10;;
19038;SDS011;9652;49.014;12.052;2023-05-18T00:31:35;4.13;;;3.30;;
19038;SDS011;9652;49.014;12.052;2023-05-18T00:34:06;4.33;;;3.10;;
19038;SDS011;9652;49.014;12.052;2023-05-18T00:36:35;3.63;;;3.43;;
19038;SDS011;9652;49.014;12.052;2023-05-18T00:39:03;4.47;;;4.10;;
19038;SDS011;9652;49.014;12.052;2023-05-18T00:41:32;4.30;;;4.00;;
19038;SDS011;9652;49.014;12.052;2023-05-18T00:43:59;4.10;;;3.80;;
19038;SDS011;9652;49.014;12.052;2023-05-18T00:46:28;4.17;;;3.83;;
19038;SDS011;9652;49.014;12.052;2023-05-18T00:48:55;4.07;;;3.77;;
19038;SDS011;9652;49.014;12.052;2023-05-18T00:51:23;4.33;;;3.47;;
19038;SDS011;9652;49.014;12.052;2023-05-18T00:53:52;3.90;;;3.53;;
19038;SDS011;9652;49.014;12.052;2023-05-18T00:56:21;3.93;;;3.63;;
19038;SDS011;9652;49.014;12.052;2023-05-18T00:58:49;3.80;;;3.50;;
19038;SDS011;9652;49.014;12.052;2023-05-18T01:01:20;4.37;;;4.07;;
19038;SDS011;9652;49.014;12.052;2023-05-18T01:03:53;4.77;;;3.70;;
19038;SDS011;9652;49.014;12.052;2023-05-18T01:06:21;4.13;;;3.80;;
19038;SDS011;9652;49.014;12.052;2023-05-18T01:08:52;4.23;;;3.57;;
19038;SDS011;9652;49.014;12.052;2023-05-18T01:11:20;3.93;;;3.53;;
19038;SDS011;9652;49.014;12.052;2023-05-18T01:14:01;3.87;;;3.27;;
19038;SDS011;9652;49.014;12.052;2023-05-18T01:16:35;4.60;;;3.53;;
19038;SDS011;9652;49.014;12.052;2023-05-18T01:19:15;3.73;;;3.07;;
19038;SDS011;9652;49.014;12.052;2023-05-18T01:22:12;3.23;;;2.90;;
19038;SDS011;9652;49.014;12.052;2023-05-18T01:25:07;3.77;;;3.37;;
19038;SDS011;9652;49.014;12.052;2023-05-18T01:27:48;3.50;;;3.20;;
19038;SDS011;9652;49.014;12.052;2023-05-18T01:30:20;5.17;;;3.53;;
19038;SDS011;9652;49.014;12.052;2023-05-18T01:32:48;3.97;;;3.00;;
19038;SDS011;9652;49.014;12.052;2023-05-18T01:35:15;4.03;;;3.73;;
19038;SDS011;9652;49.014;12.052;2023-05-18T01:37:42;4.13;;;3.83;;
19038;SDS011;9652;49.014;12.052;2023-05-18T01:40:10;3.63;;;3.43;;
19038;SDS011;9652;49.014;12.052;2023-05-18T01:42:38;4.47;;;4.17;;
19038;SDS011;9652;49.014;12.052;2023-05-18T01:45:15;4.20;;;3.80;;
19038;SDS011;9652;49.014;12.052;2023-05-18T01:47:48;4.00;;;3.70;;
19038;SDS011;9652;49.014;12.052;2023-05-18T01:50:25;3.83;;;3.53;;
19038;SDS011;9652;49.014;12.052;2023-05-18T01:53:05;4.93;;;3.83;;
19038;SDS011;9652;49.014;12.052;2023-05-18T01:55:39;5.10;;;3.27;;
19038;SDS011;9652;49.014;12.052;2023-05-18T01:58:08;4.10;;;3.83;;
19038;SDS011;9652;49.014;12.052;2023-05-18T02:00:39;4.07;;;3.50;;
19038;SDS011;9652;49.014;12.052;2023-05-18T02:03:07;4.00;;;3.60;;
19038;SDS011;9652;49.014;12.052;2023-05-18T02:05:34;4.30;;;3.33;;
19038;SDS011;9652;49.014;12.052;2023-05-18T02:08:02;5.97;;;4.27;;
19038;SDS011;9652;49.014;12.052;2023-05-18T02:10:29;3.33;;;3.13;;
19038;SDS011;9652;49.014;12.052;2023-05-18T02:12:57;4.83;;;4.27;;
19038;SDS011;9652;49.014;12.052;2023-05-18T02:15:25;5.17;;;4.13;;
19038;SDS011;9652;49.014;12.052;2023-05-18T02:17:53;3.47;;;3.27;;
19038;SDS011;9652;49.014;12.052;2023-05-18T02:20:22;3.90;;;3.50;;
19038;SDS011;9652;49.014;12.052;2023-05-18T02:22:50;3.63;;;3.33;;
19038;SDS011;9652;49.014;12.052;2023-05-18T02:25:17;4.07;;;3.67;;
19038;SDS011;9652;49.014;12.052;2023-05-18T02:27:45;4.30;;;4.00;;
19038;SDS011;9652;49.014;12.052;2023-05-18T02:30:13;4.80;;;4.40;;
19038;SDS011;9652;49.014;12.052;2023-05-18T02:32:41;4.33;;;4.03;;
19038;SDS011;9652;49.014;12.052;2023-05-18T02:35:12;3.10;;;2.90;;
19038;SDS011;9652;49.014;12.052;2023-05-18T02:37:40;4.07;;;3.70;;
19038;SDS011;9652;49.014;12.052;2023-05-18T02:40:09;3.53;;;3.23;;
19038;SDS011;9652;49.014;12.052;2023-05-18T02:42:38;3.80;;;3.50;;
19038;SDS011;9652;49.014;12.052;2023-05-18T02:45:06;6.07;;;4.20;;
19038;SDS011;9652;49.014;12.052;2023-05-18T02:47:34;5.23;;;3.43;;
19038;SDS011;9652;49.014;12.052;2023-05-18T02:50:02;5.40;;;4.03;;
19038;SDS011;9652;49.014;12.052;2023-05-18T02:52:32;4.13;;;3.77;;
19038;SDS011;9652;49.014;12.052;2023-05-18T02:54:59;3.90;;;3.67;;
19038;SDS011;9652;49.014;12.052;2023-05-18T02:57:51;3.93;;;3.63;;
19038;SDS011;9652;49.014;12.052;2023-05-18T03:00:25;4.40;;;4.00;;
19038;SDS011;9652;49.014;12.052;2023-05-18T03:02:54;4.07;;;3.77;;
19038;SDS011;9652;49.014;12.052;2023-05-18T03:05:21;3.50;;;2.83;;
19038;SDS011;9652;49.014;12.052;2023-05-18T03:07:50;4.07;;;3.63;;
19038;SDS011;9652;49.014;12.052;2023-05-18T03:10:20;3.70;;;3.40;;
19038;SDS011;9652;49.014;12.052;2023-05-18T03:12:47;3.90;;;3.60;;
19038;SDS011;9652;49.014;12.052;2023-05-18T03:15:14;3.53;;;3.23;;
19038;SDS011;9652;49.014;12.052;2023-05-18T03:17:42;3.80;;;3.57;;
19038;SDS011;9652;49.014;12.052;2023-05-18T03:20:10;4.50;;;3.70;;
19038;SDS011;9652;49.014;12.052;2023-05-18T03:22:38;3.57;;;3.33;;
19038;SDS011;9652;49.014;12.052;2023-05-18T03:25:07;3.90;;;3.37;;
19038;SDS011;9652;49.014;12.052;2023-05-18T03:27:35;3.70;;;3.40;;
19038;SDS011;9652;49.014;12.052;2023-05-18T03:30:03;4.07;;;3.80;;
19038;SDS011;9652;49.014;12.052;2023-05-18T03:32:31;3.87;;;3.53;;
19038;SDS011;9652;49.014;12.052;2023-05-18T03:35:01;3.77;;;3.50;;
19038;SDS011;9652;49.014;12.052;2023-05-18T03:37:29;3.87;;;3.57;;
19038;SDS011;9652;49.014;12.052;2023-05-18T03:39:58;4.73;;;3.63;;
19038;SDS011;9652;49.014;12.052;2023-05-18T03:42:36;4.30;;;3.90;;
19038;SDS011;9652;49.014;12.052;2023-05-18T03:45:03;3.70;;;3.40;;
19038;SDS011;9652;49.014;12.052;2023-05-18T03:47:32;4.30;;;4.00;;
19038;SDS011;9652;49.014;12.052;2023-05-18T03:49:59;3.60;;;3.40;;
19038;SDS011;9652;49.014;12.052;2023-05-18T03:52:27;4.13;;;3.83;;
19038;SDS011;9652;49.014;12.052;2023-05-18T03:54:55;3.77;;;3.50;;
19038;SDS011;9652;49.014;12.052;2023-05-18T03:57:23;4.30;;;3.90;;
19038;SDS011;9652;49.014;12.052;2023-05-18T03:59:51;3.80;;;3.50;;
19038;SDS011;9652;49.014;12.052;2023-05-18T04:02:18;3.43;;;3.20;;
19038;SDS011;9652;49.014;12.052;2023-05-18T04:04:45;3.97;;;3.67;;
19038;SDS011;9652;49.014;12.052;2023-05-18T04:07:13;5.03;;;3.90;;
19038;SDS011;9652;49.014;12.052;2023-05-18T04:09:41;3.90;;;3.60;;
19038;SDS011;9652;49.014;12.052;2023-05-18T04:12:08;3.67;;;3.37;;
19038;SDS011;9652;49.014;12.052;2023-05-18T04:14:37;3.70;;;3.40;;
19038;SDS011;9652;49.014;12.052;2023-05-18T04:17:06;4.63;;;3.80;;
19038;SDS011;9652;49.014;12.052;2023-05-18T04:19:34;4.30;;;4.00;;
19038;SDS011;9652;49.014;12.052;2023-05-18T04:22:02;3.50;;;3.20;;
19038;SDS011;9652;49.014;12.052;2023-05-18T04:24:32;4.10;;;3.47;;
19038;SDS011;9652;49.014;12.052;2023-05-18T04:27:01;3.40;;;3.20;;
19038;SDS011;9652;49.014;12.052;2023-05-18T04:29:29;4.33;;;3.93;;
19038;SDS011;9652;49.014;12.052;2023-05-18T04:31:59;4.07;;;3.67;;
19038;SDS011;9652;49.014;12.052;2023-05-18T04:34:26;4.33;;;3.17;;
19038;SDS011;9652;49.014;12.052;2023-05-18T04:36:54;3.50;;;3.30;;
19038;SDS011;9652;49.014;12.052;2023-05-18T04:39:22;3.40;;;3.10;;
19038;SDS011;9652;49.014;12.052;2023-05-18T04:41:52;4.67;;;4.27;;
19038;SDS011;9652;49.014;12.052;2023-05-18T04:44:24;3.80;;;3.43;;
19038;SDS011;9652;49.014;12.052;2023-05-18T04:46:54;3.90;;;3.60;;
19038;SDS011;9652;49.014;12.052;2023-05-18T04:49:24;4.27;;;3.73;;
19038;SDS011;9652;49.014;12.052;2023-05-18T04:51:54;4.40;;;3.30;;
19038;SDS011;9652;49.014;12.052;2023-05-18T04:54:23;3.93;;;3.63;;
19038;SDS011;9652;49.014;12.052;2023-05-18T04:56:51;3.77;;;3.37;;
19038;SDS011;9652;49.014;12.052;2023-05-18T04:59:19;3.80;;;3.50;;
19038;SDS011;9652;49.014;12.052;2023-05-18T05:01:50;5.17;;;3.57;;
19038;SDS011;9652;49.014;12.052;2023-05-18T05:04:18;3.50;;;3.20;;
19038;SDS011;9652;49.014;12.052;2023-05-18T05:06:48;5.63;;;3.73;;
19038;SDS011;9652;49.014;12.052;2023-05-18T05:09:15;3.33;;;3.13;;
19038;SDS011;9652;49.014;12.052;2023-05-18T05:11:42;5.80;;;4.00;;
19038;SDS011;9652;49.014;12.052;2023-05-18T05:14:09;3.63;;;3.33;;
19038;SDS011;9652;49.014;12.052;2023-05-18T05:16:37;3.07;;;2.73;;
19038;SDS011;9652;49.014;12.052;2023-05-18T05:19:05;4.03;;;3.40;;
19038;SDS011;9652;49.014;12.052;2023-05-18T05:21:32;4.17;;;2.80;;
19038;SDS011;9652;49.014;12.052;2023-05-18T05:24:03;3.93;;;3.63;;
19038;SDS011;9652;49.014;12.052;2023-05-18T05:26:32;3.80;;;3.50;;
19038;SDS011;9652;49.014;12.052;2023-05-18T05:28:59;4.70;;;4.03;;
19038;SDS011;9652;49.014;12.052;2023-05-18T05:31:26;5.50;;;3.40;;
19038;SDS011;9652;49.014;12.052;2023-05-18T05:33:53;3.87;;;3.57;;
19038;SDS011;9652;49.014;12.052;2023-05-18T05:36:20;3.73;;;3.43;;
19038;SDS011;9652;49.014;12.052;2023-05-18T05:38:48;3.70;;;3.30;;
19038;SDS011;9652;49.014;12.052;2023-05-18T05:41:16;4.60;;;3.67;;
19038;SDS011;9652;49.014;12.052;2023-05-18T05:43:43;3.77;;;3.27;;
19038;SDS011;9652;49.014;12.052;2023-05-18T05:46:11;4.37;;;3.27;;
19038;SDS011;9652;49.014;12.052;2023-05-18T05:48:38;3.47;;;3.17;;
19038;SDS011;9652;49.014;12.052;2023-05-18T05:51:06;3.57;;;3.27;;
19038;SDS011;9652;49.014;12.052;2023-05-18T05:53:33;4.60;;;3.50;;
19038;SDS011;9652;49.014;12.052;2023-05-18T05:56:02;2.97;;;2.77;;
19038;SDS011;9652;49.014;12.052;2023-05-18T05:58:36;3.83;;;2.80;;
19038;SDS011;9652;49.014;12.052;2023-05-18T06:01:03;3.13;;;2.33;;
19038;SDS011;9652;49.014;12.052;2023-05-18T06:03:31;6.43;;;2.50;;
19038;SDS011;9652;49.014;12.052;2023-05-18T06:06:00;3.40;;;2.57;;
19038;SDS011;9652;49.014;12.052;2023-05-18T06:08:28;3.30;;;3.10;;
19038;SDS011;9652;49.014;12.052;2023-05-18T06:10:55;3.97;;;3.37;;
19038;SDS011;9652;49.014;12.052;2023-05-18T06:13:23;3.33;;;3.00;;
19038;SDS011;9652;49.014;12.052;2023-05-18T06:15:54;3.87;;;3.53;;
19038;SDS011;9652;49.014;12.052;2023-05-18T06:18:23;3.77;;;3.07;;
19038;SDS011;9652;49.014;12.052;2023-05-18T06:20:53;3.63;;;3.17;;
19038;SDS011;9652;49.014;12.052;2023-05-18T06:23:21;3.63;;;2.93;;
19038;SDS011;9652;49.014;12.052;2023-05-18T06:26:08;6.50;;;3.50;;
19038;SDS011;9652;49.014;12.052;2023-05-18T06:28:53;5.00;;;3.30;;
19038;SDS011;9652;49.014;12.052;2023-05-18T06:31:36;6.90;;;3.97;;
19038;SDS011;9652;49.014;12.052;2023-05-18T06:34:08;7.60;;;4.13;;
19038;SDS011;9652;49.014;12.052;2023-05-18T06:36:35;5.57;;;3.20;;
19038;SDS011;9652;49.014;12.052;2023-05-18T06:39:03;5.17;;;2.93;;
19038;SDS011;9652;49.014;12.052;2023-05-18T06:41:31;4.30;;;3.07;;
19038;SDS011;9652;49.014;12.052;2023-05-18T06:43:59;4.17;;;2.77;;
19038;SDS011;9652;49.014;12.052;2023-05-18T06:46:34;3.97;;;2.60;;
19038;SDS011;9652;49.014;12.052;2023-05-18T06:49:07;4.87;;;2.90;;
19038;SDS011;9652;49.014;12.052;2023-05-18T06:51:34;2.33;;;2.17;;
19038;SDS011;9652;49.014;12.052;2023-05-18T06:54:01;2.97;;;2.33;;
19038;SDS011;9652;49.014;12.052;2023-05-18T06:56:28;5.77;;;2.90;;
19038;SDS011;9652;49.014;12.052;2023-05-18T06:58:55;5.17;;;2.20;;
19038;SDS011;9652;49.014;12.052;2023-05-18T07:01:23;6.17;;;2.40;;
19038;SDS011;9652;49.014;12.052;2023-05-18T07:03:51;3.97;;;2.40;;
19038;SDS011;9652;49.014;12.052;2023-05-18T07:06:19;3.60;;;2.30;;
19038;SDS011;9652;49.014;12.052;2023-05-18T07:08:46;4.43;;;2.43;;
19038;SDS011;9652;49.014;12.052;2023-05-18T07:11:14;3.97;;;2.00;;
19038;SDS011;9652;49.014;12.052;2023-05-18T07:13:41;2.83;;;2.10;;
19038;SDS011;9652;49.014;12.052;2023-05-18T07:16:08;4.63;;;2.23;;
19038;SDS011;9652;49.014;12.052;2023-05-18T07:18:35;4.53;;;2.30;;
19038;SDS011;9652;49.014;12.052;2023-05-18T07:21:03;4.73;;;2.10;;
19038;SDS011;9652;49.014;12.052;2023-05-18T07:23:32;2.93;;;2.10;;
19038;SDS011;9652;49.014;12.052;2023-05-18T07:26:00;4.67;;;2.27;;
19038;SDS011;9652;49.014;12.052;2023-05-18T07:28:27;2.80;;;1.90;;
19038;SDS011;9652;49.014;12.052;2023-05-18T07:30:54;3.30;;;2.00;;
19038;SDS011;9652;49.014;12.052;2023-05-18T07:33:21;4.20;;;2.53;;
19038;SDS011;9652;49.014;12.052;2023-05-18T07:35:48;3.60;;;2.37;;
19038;SDS011;9652;49.014;12.052;2023-05-18T07:38:15;3.63;;;2.40;;
19038;SDS011;9652;49.014;12.052;2023-05-18T07:40:44;2.57;;;1.90;;
19038;SDS011;9652;49.014;12.052;2023-05-18T07:43:11;1.70;;;1.60;;
19038;SDS011;9652;49.014;12.052;2023-05-18T07:45:38;4.50;;;2.37;;
19038;SDS011;9652;49.014;12.052;2023-05-18T07:48:05;3.10;;;1.87;;
19038;SDS011;9652;49.014;12.052;2023-05-18T07:50:33;4.30;;;2.20;;
19038;SDS011;9652;49.014;12.052;2023-05-18T07:53:00;3.07;;;1.90;;
19038;SDS011;9652;49.014;12.052;2023-05-18T07:55:27;7.10;;;2.03;;
19038;SDS011;9652;49.014;12.052;2023-05-18T07:57:55;4.47;;;2.37;;
19038;SDS011;9652;49.014;12.052;2023-05-18T08:00:25;3.17;;;2.00;;
19038;SDS011;9652;49.014;12.052;2023-05-18T08:02:52;3.03;;;1.97;;
19038;SDS011;9652;49.014;12.052;2023-05-18T08:05:19;6.10;;;2.80;;
19038;SDS011;9652;49.014;12.052;2023-05-18T08:07:47;3.47;;;2.10;;
19038;SDS011;9652;49.014;12.052;2023-05-18T08:10:14;1.73;;;1.57;;
19038;SDS011;9652;49.014;12.052;2023-05-18T08:12:41;6.77;;;1.73;;
19038;SDS011;9652;49.014;12.052;2023-05-18T08:15:10;2.90;;;1.67;;
19038;SDS011;9652;49.014;12.052;2023-05-18T08:17:37;3.27;;;1.80;;
19038;SDS011;9652;49.014;12.052;2023-05-18T08:20:05;4.93;;;2.30;;
19038;SDS011;9652;49.014;12.052;2023-05-18T08:22:34;5.03;;;1.90;;
19038;SDS011;9652;49.014;12.052;2023-05-18T08:25:01;3.30;;;1.73;;
19038;SDS011;9652;49.014;12.052;2023-05-18T08:27:29;2.90;;;1.50;;
19038;SDS011;9652;49.014;12.052;2023-05-18T08:29:56;3.57;;;1.73;;
19038;SDS011;9652;49.014;12.052;2023-05-18T08:32:24;3.40;;;1.83;;
19038;SDS011;9652;49.014;12.052;2023-05-18T08:34:51;2.53;;;1.53;;
19038;SDS011;9652;49.014;12.052;2023-05-18T08:37:18;2.63;;;1.90;;
19038;SDS011;9652;49.014;12.052;2023-05-18T08:39:46;2.40;;;1.77;;
19038;SDS011;9652;49.014;12.052;2023-05-18T08:42:15;5.20;;;1.90;;
19038;SDS011;9652;49.014;12.052;2023-05-18T08:44:49;3.10;;;1.63;;
19038;SDS011;9652;49.014;12.052;2023-05-18T08:47:37;2.57;;;1.67;;
19038;SDS011;9652;49.014;12.052;2023-05-18T08:50:04;3.23;;;1.70;;
19038;SDS011;9652;49.014;12.052;2023-05-18T08:52:38;4.80;;;1.97;;
19038;SDS011;9652;49.014;12.052;2023-05-18T08:55:13;4.87;;;2.33;;
19038;SDS011;9652;49.014;12.052;2023-05-18T08:57:42;4.37;;;1.90;;
19038;SDS011;9652;49.014;12.052;2023-05-18T09:00:18;3.00;;;1.70;;
19038;SDS011;9652;49.014;12.052;2023-05-18T09:02:47;3.43;;;2.10;;
19038;SDS011;9652;49.014;12.052;2023-05-18T09:05:15;3.43;;;2.10;;
19038;SDS011;9652;49.014;12.052;2023-05-18T09:07:43;3.53;;;1.83;;
19038;SDS011;9652;49.014;12.052;2023-05-18T09:10:12;4.03;;;1.87;;
19038;SDS011;9652;49.014;12.052;2023-05-18T09:12:40;5.73;;;2.20;;
19038;SDS011;9652;49.014;12.052;2023-05-18T09:15:11;3.70;;;2.00;;
19038;SDS011;9652;49.014;12.052;2023-05-18T09:17:40;7.03;;;1.77;;
19038;SDS011;9652;49.014;12.052;2023-05-18T09:20:09;3.17;;;1.93;;
19038;SDS011;9652;49.014;12.052;2023-05-18T09:22:37;2.17;;;2.00;;
19038;SDS011;9652;49.014;12.052;2023-05-18T09:25:07;2.33;;;2.00;;
19038;SDS011;9652;49.014;12.052;2023-05-18T09:27:35;3.63;;;1.90;;
19038;SDS011;9652;49.014;12.052;2023-05-18T09:30:02;2.70;;;1.93;;
19038;SDS011;9652;49.014;12.052;2023-05-18T09:32:35;5.17;;;2.10;;
19038;SDS011;9652;49.014;12.052;2023-05-18T09:35:02;3.53;;;1.70;;
19038;SDS011;9652;49.014;12.052;2023-05-18T09:37:32;4.40;;;2.07;;
19038;SDS011;9652;49.014;12.052;2023-05-18T09:40:01;4.50;;;1.87;;
19038;SDS011;9652;49.014;12.052;2023-05-18T09:42:36;2.80;;;1.77;;
19038;SDS011;9652;49.014;12.052;2023-05-18T09:45:13;2.73;;;1.87;;
19038;SDS011;9652;49.014;12.052;2023-05-18T09:47:43;4.47;;;2.60;;
19038;SDS011;9652;49.014;12.052;2023-05-18T09:50:10;3.43;;;1.70;;
19038;SDS011;9652;49.014;12.052;2023-05-18T09:52:40;4.37;;;2.07;;
19038;SDS011;9652;49.014;12.052;2023-05-18T09:55:08;3.37;;;1.90;;
19038;SDS011;9652;49.014;12.052;2023-05-18T09:57:40;5.67;;;2.20;;
19038;SDS011;9652;49.014;12.052;2023-05-18T10:00:10;3.40;;;1.90;;
19038;SDS011;9652;49.014;12.052;2023-05-18T10:02:39;3.07;;;1.67;;
19038;SDS011;9652;49.014;12.052;2023-05-18T10:05:18;2.33;;;1.60;;
19038;SDS011;9652;49.014;12.052;2023-05-18T10:07:48;2.37;;;1.73;;
19038;SDS011;9652;49.014;12.052;2023-05-18T10:10:16;2.87;;;1.67;;
19038;SDS011;9652;49.014;12.052;2023-05-18T10:12:45;1.70;;;1.60;;
19038;SDS011;9652;49.014;12.052;2023-05-18T10:15:13;5.97;;;1.80;;
19038;SDS011;9652;49.014;12.052;2023-05-18T10:17:41;3.93;;;2.10;;
19038;SDS011;9652;49.014;12.052;2023-05-18T10:20:09;3.30;;;1.90;;
19038;SDS011;9652;49.014;12.052;2023-05-18T10:22:41;3.77;;;1.80;;
19038;SDS011;9652;49.014;12.052;2023-05-18T10:25:13;3.40;;;1.83;;
19038;SDS011;9652;49.014;12.052;2023-05-18T10:27:44;5.33;;;2.17;;
19038;SDS011;9652;49.014;12.052;2023-05-18T10:30:14;6.17;;;2.33;;
19038;SDS011;9652;49.014;12.052;2023-05-18T10:32:42;4.00;;;1.70;;
19038;SDS011;9652;49.014;12.052;2023-05-18T10:35:10;3.20;;;1.80;;
19038;SDS011;9652;49.014;12.052;2023-05-18T10:37:40;2.90;;;1.87;;
19038;SDS011;9652;49.014;12.052;2023-05-18T10:40:13;3.57;;;2.20;;
19038;SDS011;9652;49.014;12.052;2023-05-18T10:42:42;7.23;;;2.13;;
19038;SDS011;9652;49.014;12.052;2023-05-18T10:45:11;4.13;;;2.03;;
19038;SDS011;9652;49.014;12.052;2023-05-18T10:47:40;2.87;;;1.77;;
19038;SDS011;9652;49.014;12.052;2023-05-18T10:50:09;5.13;;;1.90;;
19038;SDS011;9652;49.014;12.052;2023-05-18T10:52:36;3.63;;;1.80;;
19038;SDS011;9652;49.014;12.052;2023-05-18T10:55:05;3.70;;;1.67;;
19038;SDS011;9652;49.014;12.052;2023-05-18T10:57:37;3.20;;;1.50;;
19038;SDS011;9652;49.014;12.052;2023-05-18T11:00:10;3.80;;;1.50;;
19038;SDS011;9652;49.014;12.052;2023-05-18T11:02:38;2.07;;;1.43;;
19038;SDS011;9652;49.014;12.052;2023-05-18T11:05:07;3.90;;;1.53;;
19038;SDS011;9652;49.014;12.052;2023-05-18T11:07:36;5.80;;;2.10;;
19038;SDS011;9652;49.014;12.052;2023-05-18T11:10:06;3.03;;;1.80;;
19038;SDS011;9652;49.014;12.052;2023-05-18T11:12:38;6.53;;;2.00;;
19038;SDS011;9652;49.014;12.052;2023-05-18T11:15:07;4.27;;;1.80;;
19038;SDS011;9652;49.014;12.052;2023-05-18T11:17:35;3.37;;;1.97;;
19038;SDS011;9652;49.014;12.052;2023-05-18T11:20:12;4.27;;;1.90;;
19038;SDS011;9652;49.014;12.052;2023-05-18T11:22:46;4.40;;;1.70;;
19038;SDS011;9652;49.014;12.052;2023-05-18T11:25:38;3.37;;;1.53;;
19038;SDS011;9652;49.014;12.052;2023-05-18T11:28:10;2.50;;;1.60;;
19038;SDS011;9652;49.014;12.052;2023-05-18T11:30:48;5.50;;;1.70;;
19038;SDS011;9652;49.014;12.052;2023-05-18T11:33:20;2.23;;;1.63;;
19038;SDS011;9652;49.014;12.052;2023-05-18T11:35:54;1.83;;;1.30;;
19038;SDS011;9652;49.014;12.052;2023-05-18T11:38:49;4.23;;;1.67;;
19038;SDS011;9652;49.014;12.052;2023-05-18T11:41:26;3.67;;;1.50;;
19038;SDS011;9652;49.014;12.052;2023-05-18T11:44:13;4.33;;;1.67;;
19038;SDS011;9652;49.014;12.052;2023-05-18T11:46:51;4.70;;;1.97;;
19038;SDS011;9652;49.014;12.052;2023-05-18T11:49:22;4.57;;;1.70;;
19038;SDS011;9652;49.014;12.052;2023-05-18T11:51:55;3.90;;;1.80;;
19038;SDS011;9652;49.014;12.052;2023-05-18T11:54:27;5.57;;;1.80;;
19038;SDS011;9652;49.014;12.052;2023-05-18T11:56:59;6.47;;;2.27;;
19038;SDS011;9652;49.014;12.052;2023-05-18T11:59:31;6.50;;;1.73;;
19038;SDS011;9652;49.014;12.052;2023-05-18T12:02:02;4.90;;;2.00;;
19038;SDS011;9652;49.014;12.052;2023-05-18T12:04:30;4.47;;;1.83;;
19038;SDS011;9652;49.014;12.052;2023-05-18T12:06:58;5.07;;;2.07;;
19038;SDS011;9652;49.014;12.052;2023-05-18T12:09:30;6.13;;;2.13;;
19038;SDS011;9652;49.014;12.052;2023-05-18T12:11:58;5.07;;;1.93;;
19038;SDS011;9652;49.014;12.052;2023-05-18T12:14:27;1.87;;;1.40;;
19038;SDS011;9652;49.014;12.052;2023-05-18T12:16:57;2.60;;;1.40;;
19038;SDS011;9652;49.014;12.052;2023-05-18T12:19:26;3.03;;;1.40;;
19038;SDS011;9652;49.014;12.052;2023-05-18T12:21:53;3.77;;;1.50;;
19038;SDS011;9652;49.014;12.052;2023-05-18T12:24:20;3.10;;;1.47;;
19038;SDS011;9652;49.014;12.052;2023-05-18T12:26:47;4.73;;;1.50;;
19038;SDS011;9652;49.014;12.052;2023-05-18T12:29:15;3.47;;;1.53;;
19038;SDS011;9652;49.014;12.052;2023-05-18T12:31:45;5.13;;;2.00;;
19038;SDS011;9652;49.014;12.052;2023-05-18T12:34:14;4.60;;;1.50;;
19038;SDS011;9652;49.014;12.052;2023-05-18T12:36:50;3.73;;;1.53;;
19038;SDS011;9652;49.014;12.052;2023-05-18T12:39:18;3.33;;;1.43;;
19038;SDS011;9652;49.014;12.052;2023-05-18T12:41:46;3.60;;;1.60;;
19038;SDS011;9652;49.014;12.052;2023-05-18T12:44:13;5.40;;;1.47;;
19038;SDS011;9652;49.014;12.052;2023-05-18T12:46:40;6.13;;;2.10;;
19038;SDS011;9652;49.014;12.052;2023-05-18T12:49:08;3.27;;;1.60;;
19038;SDS011;9652;49.014;12.052;2023-05-18T12:51:37;4.23;;;1.70;;
19038;SDS011;9652;49.014;12.052;2023-05-18T12:54:05;5.97;;;1.80;;
19038;SDS011;9652;49.014;12.052;2023-05-18T12:56:52;4.10;;;1.60;;
19038;SDS011;9652;49.014;12.052;2023-05-18T12:59:24;2.77;;;1.40;;
19038;SDS011;9652;49.014;12.052;2023-05-18T13:01:52;3.93;;;1.77;;
19038;SDS011;9652;49.014;12.052;2023-05-18T13:04:21;3.77;;;1.50;;
19038;SDS011;9652;49.014;12.052;2023-05-18T13:06:49;1.93;;;1.20;;
19038;SDS011;9652;49.014;12.052;2023-05-18T13:09:22;1.77;;;1.30;;
19038;SDS011;9652;49.014;12.052;2023-05-18T13:11:49;3.93;;;1.30;;
19038;SDS011;9652;49.014;12.052;2023-05-18T13:14:19;3.97;;;1.40;;
19038;SDS011;9652;49.014;12.052;2023-05-18T13:16:49;4.43;;;1.43;;
19038;SDS011;9652;49.014;12.052;2023-05-18T13:19:17;2.67;;;1.30;;
19038;SDS011;9652;49.014;12.052;2023-05-18T13:21:44;6.57;;;1.67;;
19038;SDS011;9652;49.014;12.052;2023-05-18T13:24:21;4.17;;;1.20;;
19038;SDS011;9652;49.014;12.052;2023-05-18T13:26:48;5.13;;;1.50;;
19038;SDS011;9652;49.014;12.052;2023-05-18T13:29:15;4.67;;;1.67;;
19038;SDS011;9652;49.014;12.052;2023-05-18T13:31:43;5.10;;;1.60;;
19038;SDS011;9652;49.014;12.052;2023-05-18T13:34:10;3.23;;;1.33;;
19038;SDS011;9652;49.014;12.052;2023-05-18T13:36:37;3.17;;;1.10;;
19038;SDS011;9652;49.014;12.052;2023-05-18T13:39:05;4.60;;;1.27;;
19038;SDS011;9652;49.014;12.052;2023-05-18T13:41:33;3.60;;;1.30;;
19038;SDS011;9652;49.014;12.052;2023-05-18T13:44:01;3.60;;;1.40;;
19038;SDS011;9652;49.014;12.052;2023-05-18T13:46:29;5.17;;;1.43;;
19038;SDS011;9652;49.014;12.052;2023-05-18T13:48:56;2.43;;;1.07;;
19038;SDS011;9652;49.014;12.052;2023-05-18T13:51:23;2.87;;;1.27;;
19038;SDS011;9652;49.014;12.052;2023-05-18T13:53:50;3.77;;;1.17;;
19038;SDS011;9652;49.014;12.052;2023-05-18T13:56:17;3.30;;;1.30;;
19038;SDS011;9652;49.014;12.052;2023-05-18T13:58:45;4.67;;;1.57;;
19038;SDS011;9652;49.014;12.052;2023-05-18T14:01:14;2.10;;;1.10;;
19038;SDS011;9652;49.014;12.052;2023-05-18T14:03:41;1.97;;;1.40;;
19038;SDS011;9652;49.014;12.052;2023-05-18T14:06:08;3.23;;;1.47;;
19038;SDS011;9652;49.014;12.052;2023-05-18T14:08:36;3.77;;;1.37;;
19038;SDS011;9652;49.014;12.052;2023-05-18T14:11:03;1.43;;;1.00;;
19038;SDS011;9652;49.014;12.052;2023-05-18T14:13:30;3.07;;;1.33;;
19038;SDS011;9652;49.014;12.052;2023-05-18T14:15:58;3.33;;;1.33;;
19038;SDS011;9652;49.014;12.052;2023-05-18T14:18:25;3.60;;;1.20;;
19038;SDS011;9652;49.014;12.052;2023-05-18T14:20:52;3.90;;;1.37;;
19038;SDS011;9652;49.014;12.052;2023-05-18T14:23:21;3.97;;;1.30;;
19038;SDS011;9652;49.014;12.052;2023-05-18T14:25:49;2.23;;;1.13;;
19038;SDS011;9652;49.014;12.052;2023-05-18T14:28:16;2.97;;;1.23;;
19038;SDS011;9652;49.014;12.052;2023-05-18T14:30:43;3.73;;;1.47;;
19038;SDS011;9652;49.014;12.052;2023-05-18T14:33:11;5.17;;;1.70;;
19038;SDS011;9652;49.014;12.052;2023-05-18T14:35:38;3.30;;;1.30;;
19038;SDS011;9652;49.014;12.052;2023-05-18T14:38:05;2.80;;;1.13;;
19038;SDS011;9652;49.014;12.052;2023-05-18T14:40:32;4.23;;;1.40;;
19038;SDS011;9652;49.014;12.052;2023-05-18T14:42:59;5.73;;;1.60;;
19038;SDS011;9652;49.014;12.052;2023-05-18T14:45:26;2.30;;;1.10;;
19038;SDS011;9652;49.014;12.052;2023-05-18T14:47:53;3.40;;;1.10;;
19038;SDS011;9652;49.014;12.052;2023-05-18T14:50:22;3.90;;;1.37;;
19038;SDS011;9652;49.014;12.052;2023-05-18T14:52:49;2.43;;;1.23;;
19038;SDS011;9652;49.014;12.052;2023-05-18T14:55:18;4.77;;;1.20;;
19038;SDS011;9652;49.014;12.052;2023-05-18T14:57:45;2.73;;;1.17;;
19038;SDS011;9652;49.014;12.052;2023-05-18T15:00:13;3.53;;;1.40;;
19038;SDS011;9652;49.014;12.052;2023-05-18T15:02:40;3.40;;;1.20;;